Shaqra', Yemen
Current Conditions -  °F | °C
As of 5:00 PM on Friday 24 Oct 2014 (Local Time) from OYAA Reporting Station
Clear Clear  
Wind Chill: 88°   Ceiling: Unl
Heat Index: 88°   Visibility: 6mi
Dew Point: 55°   Wind: 12mph
Humidity: 33%   Direction: 260°W
Pressure: 29.77"   Gusts: NA
Location:  13.36°N, 45.69°E
Report Text: OYAA 241400Z 26010KT CAVOK 31/13 Q1008
Loading
Personal Weather Stations






























Interactive Weather Map
Tropical Storm Tracking
New forecast layout! Learn more

10-Day Weather Forecast

Advertisements
Track Severe Weather on mobile